sensor_id;sensor_type;location;lat;lon;timestamp;temperature;humidity
13245;DHT22;6689;53.400;12.486;2023-07-20T00:01:02;17.60;1.00
13245;DHT22;6689;53.400;12.486;2023-07-20T00:03:29;17.60;1.00
13245;DHT22;6689;53.400;12.486;2023-07-20T00:05:57;17.60;1.00
13245;DHT22;6689;53.400;12.486;2023-07-20T00:08:24;17.60;1.00
13245;DHT22;6689;53.400;12.486;2023-07-20T00:10:54;17.60;1.00
13245;DHT22;6689;53.400;12.486;2023-07-20T00:13:22;17.60;1.00
13245;DHT22;6689;53.400;12.486;2023-07-20T00:15:51;17.60;1.00
13245;DHT22;6689;53.400;12.486;2023-07-20T00:18:18;17.50;1.00
13245;DHT22;6689;53.400;12.486;2023-07-20T00:20:47;17.50;1.00
13245;DHT22;6689;53.400;12.486;2023-07-20T00:23:14;17.50;1.00
13245;DHT22;6689;53.400;12.486;2023-07-20T00:25:41;17.50;1.00
13245;DHT22;6689;53.400;12.486;2023-07-20T00:28:10;17.40;1.00
13245;DHT22;6689;53.400;12.486;2023-07-20T00:30:38;17.40;1.00
13245;DHT22;6689;53.400;12.486;2023-07-20T00:33:09;17.40;1.00
13245;DHT22;6689;53.400;12.486;2023-07-20T00:35:37;17.40;1.00
13245;DHT22;6689;53.400;12.486;2023-07-20T00:38:05;17.40;1.00
13245;DHT22;6689;53.400;12.486;2023-07-20T00:40:36;17.40;1.00
13245;DHT22;6689;53.400;12.486;2023-07-20T00:43:04;17.40;1.00
13245;DHT22;6689;53.400;12.486;2023-07-20T00:45:33;17.40;1.00
13245;DHT22;6689;53.400;12.486;2023-07-20T00:48:01;17.30;1.00
13245;DHT22;6689;53.400;12.486;2023-07-20T00:50:29;17.40;1.00
13245;DHT22;6689;53.400;12.486;2023-07-20T00:52:56;17.30;1.00
13245;DHT22;6689;53.400;12.486;2023-07-20T00:55:24;17.30;1.00
13245;DHT22;6689;53.400;12.486;2023-07-20T00:57:52;17.30;1.00
13245;DHT22;6689;53.400;12.486;2023-07-20T01:00:20;17.30;1.00
13245;DHT22;6689;53.400;12.486;2023-07-20T01:02:50;17.30;1.00
13245;DHT22;6689;53.400;12.486;2023-07-20T01:05:17;17.30;1.00
13245;DHT22;6689;53.400;12.486;2023-07-20T01:07:51;17.20;1.00
13245;DHT22;6689;53.400;12.486;2023-07-20T01:10:28;17.20;1.00
13245;DHT22;6689;53.400;12.486;2023-07-20T01:12:57;17.20;1.00
13245;DHT22;6689;53.400;12.486;2023-07-20T01:15:27;17.20;1.00
13245;DHT22;6689;53.400;12.486;2023-07-20T01:17:56;17.20;1.00
13245;DHT22;6689;53.400;12.486;2023-07-20T01:20:26;17.20;1.00
13245;DHT22;6689;53.400;12.486;2023-07-20T01:23:18;17.20;1.00
13245;DHT22;6689;53.400;12.486;2023-07-20T01:29:03;17.10;1.00
13245;DHT22;6689;53.400;12.486;2023-07-20T01:31:36;17.20;1.00
13245;DHT22;6689;53.400;12.486;2023-07-20T01:34:06;17.20;1.00
13245;DHT22;6689;53.400;12.486;2023-07-20T01:36:37;17.10;1.00
13245;DHT22;6689;53.400;12.486;2023-07-20T01:39:07;17.20;1.00
13245;DHT22;6689;53.400;12.486;2023-07-20T01:41:35;17.10;1.00
13245;DHT22;6689;53.400;12.486;2023-07-20T01:44:04;17.10;1.00
13245;DHT22;6689;53.400;12.486;2023-07-20T01:46:32;17.10;1.00
13245;DHT22;6689;53.400;12.486;2023-07-20T01:49:01;17.10;1.00
13245;DHT22;6689;53.400;12.486;2023-07-20T01:51:28;17.10;1.00
13245;DHT22;6689;53.400;12.486;2023-07-20T01:53:55;17.00;1.00
13245;DHT22;6689;53.400;12.486;2023-07-20T01:56:23;17.00;1.00
13245;DHT22;6689;53.400;12.486;2023-07-20T01:58:50;17.00;1.00
13245;DHT22;6689;53.400;12.486;2023-07-20T02:01:18;17.00;1.00
13245;DHT22;6689;53.400;12.486;2023-07-20T02:03:45;16.90;1.00
13245;DHT22;6689;53.400;12.486;2023-07-20T02:06:14;16.90;1.00
13245;DHT22;6689;53.400;12.486;2023-07-20T02:08:42;16.90;1.00
13245;DHT22;6689;53.400;12.486;2023-07-20T02:11:09;16.90;1.00
13245;DHT22;6689;53.400;12.486;2023-07-20T02:13:37;16.80;1.00
13245;DHT22;6689;53.400;12.486;2023-07-20T02:16:05;16.80;1.00
13245;DHT22;6689;53.400;12.486;2023-07-20T02:18:32;16.70;1.00
13245;DHT22;6689;53.400;12.486;2023-07-20T02:21:01;16.70;1.00
13245;DHT22;6689;53.400;12.486;2023-07-20T02:23:30;16.70;1.00
13245;DHT22;6689;53.400;12.486;2023-07-20T02:25:57;16.70;1.00
13245;DHT22;6689;53.400;12.486;2023-07-20T02:28:25;16.70;1.00
13245;DHT22;6689;53.400;12.486;2023-07-20T02:30:52;16.60;1.00
13245;DHT22;6689;53.400;12.486;2023-07-20T02:33:20;16.60;1.00
13245;DHT22;6689;53.400;12.486;2023-07-20T02:35:48;16.60;1.00
13245;DHT22;6689;53.400;12.486;2023-07-20T02:38:15;16.50;1.00
13245;DHT22;6689;53.400;12.486;2023-07-20T02:40:44;16.50;1.00
13245;DHT22;6689;53.400;12.486;2023-07-20T02:43:11;16.50;1.00
13245;DHT22;6689;53.400;12.486;2023-07-20T02:45:40;16.50;1.00
13245;DHT22;6689;53.400;12.486;2023-07-20T02:48:09;16.50;1.00
13245;DHT22;6689;53.400;12.486;2023-07-20T02:50:37;16.50;1.00
13245;DHT22;6689;53.400;12.486;2023-07-20T02:53:04;16.50;1.00
13245;DHT22;6689;53.400;12.486;2023-07-20T02:55:33;16.40;1.00
13245;DHT22;6689;53.400;12.486;2023-07-20T02:58:02;16.40;1.00
13245;DHT22;6689;53.400;12.486;2023-07-20T03:00:30;16.40;1.00
13245;DHT22;6689;53.400;12.486;2023-07-20T03:02:57;16.50;1.00
13245;DHT22;6689;53.400;12.486;2023-07-20T03:05:24;16.40;1.00
13245;DHT22;6689;53.400;12.486;2023-07-20T03:07:53;16.50;1.00
13245;DHT22;6689;53.400;12.486;2023-07-20T03:10:20;16.50;1.00
13245;DHT22;6689;53.400;12.486;2023-07-20T03:12:48;16.50;1.00
13245;DHT22;6689;53.400;12.486;2023-07-20T03:15:17;16.40;1.00
13245;DHT22;6689;53.400;12.486;2023-07-20T03:17:44;16.40;1.00
13245;DHT22;6689;53.400;12.486;2023-07-20T03:20:12;16.40;1.00
13245;DHT22;6689;53.400;12.486;2023-07-20T03:22:39;16.40;1.00
13245;DHT22;6689;53.400;12.486;2023-07-20T03:25:06;16.50;1.00
13245;DHT22;6689;53.400;12.486;2023-07-20T03:27:34;16.50;1.00
13245;DHT22;6689;53.400;12.486;2023-07-20T03:33:05;16.50;1.00
13245;DHT22;6689;53.400;12.486;2023-07-20T03:35:33;16.50;1.00
13245;DHT22;6689;53.400;12.486;2023-07-20T03:38:00;16.50;1.00
13245;DHT22;6689;53.400;12.486;2023-07-20T03:40:27;16.50;1.00
13245;DHT22;6689;53.400;12.486;2023-07-20T03:42:54;16.50;1.00
13245;DHT22;6689;53.400;12.486;2023-07-20T03:45:22;16.50;1.00
13245;DHT22;6689;53.400;12.486;2023-07-20T03:47:49;16.40;1.00
13245;DHT22;6689;53.400;12.486;2023-07-20T03:50:18;16.50;1.00
13245;DHT22;6689;53.400;12.486;2023-07-20T03:52:46;16.50;1.00
13245;DHT22;6689;53.400;12.486;2023-07-20T03:55:13;16.50;1.00
13245;DHT22;6689;53.400;12.486;2023-07-20T03:57:40;16.50;1.00
13245;DHT22;6689;53.400;12.486;2023-07-20T04:00:09;16.50;1.00
13245;DHT22;6689;53.400;12.486;2023-07-20T04:02:38;16.50;1.00
13245;DHT22;6689;53.400;12.486;2023-07-20T04:05:06;16.50;1.00
13245;DHT22;6689;53.400;12.486;2023-07-20T04:07:34;16.50;1.00
13245;DHT22;6689;53.400;12.486;2023-07-20T04:10:02;16.60;1.00
13245;DHT22;6689;53.400;12.486;2023-07-20T04:12:29;16.50;1.00
13245;DHT22;6689;53.400;12.486;2023-07-20T04:14:57;16.50;1.00
13245;DHT22;6689;53.400;12.486;2023-07-20T04:17:25;16.50;1.00
13245;DHT22;6689;53.400;12.486;2023-07-20T04:19:53;16.60;1.00
13245;DHT22;6689;53.400;12.486;2023-07-20T04:22:20;16.50;1.00
13245;DHT22;6689;53.400;12.486;2023-07-20T04:24:49;16.60;1.00
13245;DHT22;6689;53.400;12.486;2023-07-20T04:27:16;16.70;1.00
13245;DHT22;6689;53.400;12.486;2023-07-20T04:29:44;16.70;1.00
13245;DHT22;6689;53.400;12.486;2023-07-20T04:32:13;16.70;1.00
13245;DHT22;6689;53.400;12.486;2023-07-20T04:34:40;16.70;1.00
13245;DHT22;6689;53.400;12.486;2023-07-20T04:37:07;16.80;1.00
13245;DHT22;6689;53.400;12.486;2023-07-20T04:39:34;16.80;1.00
13245;DHT22;6689;53.400;12.486;2023-07-20T04:42:03;16.80;1.00
13245;DHT22;6689;53.400;12.486;2023-07-20T04:44:31;16.90;1.00
13245;DHT22;6689;53.400;12.486;2023-07-20T04:46:58;16.90;1.00
13245;DHT22;6689;53.400;12.486;2023-07-20T04:49:25;16.90;1.00
13245;DHT22;6689;53.400;12.486;2023-07-20T04:51:53;16.90;1.00
13245;DHT22;6689;53.400;12.486;2023-07-20T04:54:20;16.80;1.00
13245;DHT22;6689;53.400;12.486;2023-07-20T04:56:48;16.90;1.00
13245;DHT22;6689;53.400;12.486;2023-07-20T04:59:17;16.90;1.00
13245;DHT22;6689;53.400;12.486;2023-07-20T05:01:44;16.90;1.00
13245;DHT22;6689;53.400;12.486;2023-07-20T05:04:11;16.80;1.00
13245;DHT22;6689;53.400;12.486;2023-07-20T05:06:39;16.80;1.00
13245;DHT22;6689;53.400;12.486;2023-07-20T05:09:06;16.80;1.00
13245;DHT22;6689;53.400;12.486;2023-07-20T05:11:33;16.80;1.00
13245;DHT22;6689;53.400;12.486;2023-07-20T05:14:01;16.70;1.00
13245;DHT22;6689;53.400;12.486;2023-07-20T05:16:30;16.70;1.00
13245;DHT22;6689;53.400;12.486;2023-07-20T05:18:57;16.80;1.00
13245;DHT22;6689;53.400;12.486;2023-07-20T05:21:25;16.80;1.00
13245;DHT22;6689;53.400;12.486;2023-07-20T05:23:52;16.80;1.00
13245;DHT22;6689;53.400;12.486;2023-07-20T05:26:19;16.80;1.00
13245;DHT22;6689;53.400;12.486;2023-07-20T05:28:46;16.70;1.00
13245;DHT22;6689;53.400;12.486;2023-07-20T05:31:14;16.70;1.00
13245;DHT22;6689;53.400;12.486;2023-07-20T05:33:43;16.80;1.00
13245;DHT22;6689;53.400;12.486;2023-07-20T05:36:10;16.70;1.00
13245;DHT22;6689;53.400;12.486;2023-07-20T05:38:37;16.80;1.00
13245;DHT22;6689;53.400;12.486;2023-07-20T05:41:04;16.80;1.00
13245;DHT22;6689;53.400;12.486;2023-07-20T05:43:36;16.90;1.00
13245;DHT22;6689;53.400;12.486;2023-07-20T05:46:03;16.90;1.00
13245;DHT22;6689;53.400;12.486;2023-07-20T05:48:31;17.00;1.00
13245;DHT22;6689;53.400;12.486;2023-07-20T05:51:00;17.10;1.00
13245;DHT22;6689;53.400;12.486;2023-07-20T05:53:27;17.10;1.00
13245;DHT22;6689;53.400;12.486;2023-07-20T05:55:55;17.20;1.00
13245;DHT22;6689;53.400;12.486;2023-07-20T05:58:23;17.30;1.00
13245;DHT22;6689;53.400;12.486;2023-07-20T06:00:50;17.40;1.00
13245;DHT22;6689;53.400;12.486;2023-07-20T06:03:18;17.40;1.00
13245;DHT22;6689;53.400;12.486;2023-07-20T06:05:47;17.60;1.00
13245;DHT22;6689;53.400;12.486;2023-07-20T06:08:16;17.70;1.00
13245;DHT22;6689;53.400;12.486;2023-07-20T06:10:43;17.90;1.00
13245;DHT22;6689;53.400;12.486;2023-07-20T06:13:11;18.00;1.00
13245;DHT22;6689;53.400;12.486;2023-07-20T06:15:38;17.90;1.00
13245;DHT22;6689;53.400;12.486;2023-07-20T06:18:07;18.00;1.00
13245;DHT22;6689;53.400;12.486;2023-07-20T06:20:35;17.90;1.00
13245;DHT22;6689;53.400;12.486;2023-07-20T06:23:02;18.00;1.00
13245;DHT22;6689;53.400;12.486;2023-07-20T06:25:31;18.10;1.00
13245;DHT22;6689;53.400;12.486;2023-07-20T06:27:58;18.20;1.00
13245;DHT22;6689;53.400;12.486;2023-07-20T06:30:25;18.30;1.00
13245;DHT22;6689;53.400;12.486;2023-07-20T06:32:52;18.40;1.00
13245;DHT22;6689;53.400;12.486;2023-07-20T06:35:19;18.20;1.00
13245;DHT22;6689;53.400;12.486;2023-07-20T06:37:46;18.40;1.00
13245;DHT22;6689;53.400;12.486;2023-07-20T06:40:13;18.70;1.00
13245;DHT22;6689;53.400;12.486;2023-07-20T06:42:42;18.70;1.00
13245;DHT22;6689;53.400;12.486;2023-07-20T06:45:10;18.80;1.00
13245;DHT22;6689;53.400;12.486;2023-07-20T06:47:38;18.60;99.90
13245;DHT22;6689;53.400;12.486;2023-07-20T06:50:07;18.60;99.90
13245;DHT22;6689;53.400;12.486;2023-07-20T06:52:34;18.60;99.90
13245;DHT22;6689;53.400;12.486;2023-07-20T06:55:02;18.70;99.90
13245;DHT22;6689;53.400;12.486;2023-07-20T06:57:29;18.70;99.90
13245;DHT22;6689;53.400;12.486;2023-07-20T06:59:58;18.70;99.90
13245;DHT22;6689;53.400;12.486;2023-07-20T07:02:26;18.60;99.90
13245;DHT22;6689;53.400;12.486;2023-07-20T07:04:53;18.70;99.90
13245;DHT22;6689;53.400;12.486;2023-07-20T07:07:22;18.90;99.90
13245;DHT22;6689;53.400;12.486;2023-07-20T07:09:49;18.90;99.90
13245;DHT22;6689;53.400;12.486;2023-07-20T07:12:16;18.80;99.90
13245;DHT22;6689;53.400;12.486;2023-07-20T07:14:44;18.70;99.90
13245;DHT22;6689;53.400;12.486;2023-07-20T07:17:12;18.60;99.90
13245;DHT22;6689;53.400;12.486;2023-07-20T07:19:40;18.70;99.90
13245;DHT22;6689;53.400;12.486;2023-07-20T07:22:08;18.70;99.90
13245;DHT22;6689;53.400;12.486;2023-07-20T07:24:35;18.80;99.90
13245;DHT22;6689;53.400;12.486;2023-07-20T07:27:03;18.90;99.90
13245;DHT22;6689;53.400;12.486;2023-07-20T07:29:30;18.70;99.90
13245;DHT22;6689;53.400;12.486;2023-07-20T07:31:58;18.70;99.90
13245;DHT22;6689;53.400;12.486;2023-07-20T07:34:27;18.80;99.90
13245;DHT22;6689;53.400;12.486;2023-07-20T07:36:55;18.70;99.90
13245;DHT22;6689;53.400;12.486;2023-07-20T07:39:22;18.70;99.90
13245;DHT22;6689;53.400;12.486;2023-07-20T07:41:50;18.80;99.90
13245;DHT22;6689;53.400;12.486;2023-07-20T07:44:18;19.00;99.90
13245;DHT22;6689;53.400;12.486;2023-07-20T07:46:47;19.10;99.90
13245;DHT22;6689;53.400;12.486;2023-07-20T07:49:14;19.20;99.90
13245;DHT22;6689;53.400;12.486;2023-07-20T07:51:43;19.30;99.90
13245;DHT22;6689;53.400;12.486;2023-07-20T07:54:11;19.50;99.90
13245;DHT22;6689;53.400;12.486;2023-07-20T07:56:38;19.60;99.90
13245;DHT22;6689;53.400;12.486;2023-07-20T07:59:06;19.70;99.90
13245;DHT22;6689;53.400;12.486;2023-07-20T08:01:36;20.00;99.90
13245;DHT22;6689;53.400;12.486;2023-07-20T08:04:04;20.30;99.90
13245;DHT22;6689;53.400;12.486;2023-07-20T08:06:31;20.50;99.90
13245;DHT22;6689;53.400;12.486;2023-07-20T08:09:00;20.40;99.90
13245;DHT22;6689;53.400;12.486;2023-07-20T08:11:28;20.40;99.90
13245;DHT22;6689;53.400;12.486;2023-07-20T08:13:56;20.60;99.90
13245;DHT22;6689;53.400;12.486;2023-07-20T08:16:24;20.40;99.90
13245;DHT22;6689;53.400;12.486;2023-07-20T08:18:51;20.60;99.90
13245;DHT22;6689;53.400;12.486;2023-07-20T08:21:18;20.60;99.90
13245;DHT22;6689;53.400;12.486;2023-07-20T08:23:46;20.80;99.90
13245;DHT22;6689;53.400;12.486;2023-07-20T08:26:14;21.00;99.90
13245;DHT22;6689;53.400;12.486;2023-07-20T08:28:44;20.70;99.90
13245;DHT22;6689;53.400;12.486;2023-07-20T08:31:14;21.10;99.90
13245;DHT22;6689;53.400;12.486;2023-07-20T08:33:41;21.10;99.90
13245;DHT22;6689;53.400;12.486;2023-07-20T08:36:08;20.80;99.90
13245;DHT22;6689;53.400;12.486;2023-07-20T08:38:35;20.90;99.90
13245;DHT22;6689;53.400;12.486;2023-07-20T08:41:03;20.90;99.90
13245;DHT22;6689;53.400;12.486;2023-07-20T08:43:33;21.10;99.90
13245;DHT22;6689;53.400;12.486;2023-07-20T08:46:02;21.20;99.90
13245;DHT22;6689;53.400;12.486;2023-07-20T08:48:30;21.20;99.90
13245;DHT22;6689;53.400;12.486;2023-07-20T08:50:58;21.50;99.90
13245;DHT22;6689;53.400;12.486;2023-07-20T08:53:27;21.40;99.90
13245;DHT22;6689;53.400;12.486;2023-07-20T08:55:55;21.40;99.90
13245;DHT22;6689;53.400;12.486;2023-07-20T08:58:24;21.50;99.90
13245;DHT22;6689;53.400;12.486;2023-07-20T09:00:55;21.60;99.90
13245;DHT22;6689;53.400;12.486;2023-07-20T09:03:25;21.50;99.90
13245;DHT22;6689;53.400;12.486;2023-07-20T09:05:52;21.50;99.90
13245;DHT22;6689;53.400;12.486;2023-07-20T09:08:21;21.70;99.90
13245;DHT22;6689;53.400;12.486;2023-07-20T09:10:48;21.80;99.90
13245;DHT22;6689;53.400;12.486;2023-07-20T09:13:15;21.90;99.90
13245;DHT22;6689;53.400;12.486;2023-07-20T09:15:46;22.20;99.90
13245;DHT22;6689;53.400;12.486;2023-07-20T09:18:25;22.20;99.90
13245;DHT22;6689;53.400;12.486;2023-07-20T09:20:58;22.10;99.90
13245;DHT22;6689;53.400;12.486;2023-07-20T09:23:31;22.10;99.90
13245;DHT22;6689;53.400;12.486;2023-07-20T09:25:59;22.00;99.90
13245;DHT22;6689;53.400;12.486;2023-07-20T09:28:27;21.80;99.90
13245;DHT22;6689;53.400;12.486;2023-07-20T09:30:55;21.70;99.90
13245;DHT22;6689;53.400;12.486;2023-07-20T09:33:25;21.40;99.90
13245;DHT22;6689;53.400;12.486;2023-07-20T09:35:53;21.30;99.90
13245;DHT22;6689;53.400;12.486;2023-07-20T09:38:20;21.30;99.90
13245;DHT22;6689;53.400;12.486;2023-07-20T09:40:48;21.60;99.90
13245;DHT22;6689;53.400;12.486;2023-07-20T09:43:16;21.90;99.90
13245;DHT22;6689;53.400;12.486;2023-07-20T09:45:43;22.20;99.90
13245;DHT22;6689;53.400;12.486;2023-07-20T09:48:11;22.40;99.90
13245;DHT22;6689;53.400;12.486;2023-07-20T09:50:49;22.50;99.90
13245;DHT22;6689;53.400;12.486;2023-07-20T09:53:17;22.40;99.90
13245;DHT22;6689;53.400;12.486;2023-07-20T09:55:46;22.10;99.90
13245;DHT22;6689;53.400;12.486;2023-07-20T09:58:14;22.00;99.90
13245;DHT22;6689;53.400;12.486;2023-07-20T10:00:42;21.70;99.90
13245;DHT22;6689;53.400;12.486;2023-07-20T10:03:16;21.50;99.90
13245;DHT22;6689;53.400;12.486;2023-07-20T10:05:51;21.40;99.90
13245;DHT22;6689;53.400;12.486;2023-07-20T10:08:19;21.20;99.90
13245;DHT22;6689;53.400;12.486;2023-07-20T10:10:48;21.10;99.90
13245;DHT22;6689;53.400;12.486;2023-07-20T10:13:18;21.00;99.90
13245;DHT22;6689;53.400;12.486;2023-07-20T10:15:49;21.10;99.90
13245;DHT22;6689;53.400;12.486;2023-07-20T10:18:22;21.10;99.90
13245;DHT22;6689;53.400;12.486;2023-07-20T10:20:54;21.10;99.90
13245;DHT22;6689;53.400;12.486;2023-07-20T10:23:22;21.40;99.90
13245;DHT22;6689;53.400;12.486;2023-07-20T10:25:50;21.20;99.90
13245;DHT22;6689;53.400;12.486;2023-07-20T10:28:18;21.10;99.90
13245;DHT22;6689;53.400;12.486;2023-07-20T10:30:47;21.50;99.90
13245;DHT22;6689;53.400;12.486;2023-07-20T10:33:15;21.70;99.90
13245;DHT22;6689;53.400;12.486;2023-07-20T10:35:55;21.90;99.90
13245;DHT22;6689;53.400;12.486;2023-07-20T10:38:38;21.80;99.90
13245;DHT22;6689;53.400;12.486;2023-07-20T10:41:16;21.50;99.90
13245;DHT22;6689;53.400;12.486;2023-07-20T10:43:45;21.60;99.90
13245;DHT22;6689;53.400;12.486;2023-07-20T10:46:14;21.80;99.90
13245;DHT22;6689;53.400;12.486;2023-07-20T10:49:00;22.10;99.90
13245;DHT22;6689;53.400;12.486;2023-07-20T10:51:39;22.30;99.90
13245;DHT22;6689;53.400;12.486;2023-07-20T10:54:08;22.60;99.90
13245;DHT22;6689;53.400;12.486;2023-07-20T10:56:35;22.50;99.90
13245;DHT22;6689;53.400;12.486;2023-07-20T10:59:17;22.90;99.90
13245;DHT22;6689;53.400;12.486;2023-07-20T11:01:47;23.10;99.90
13245;DHT22;6689;53.400;12.486;2023-07-20T11:04:15;23.20;99.90
13245;DHT22;6689;53.400;12.486;2023-07-20T11:06:46;23.30;99.90
13245;DHT22;6689;53.400;12.486;2023-07-20T11:09:14;23.20;99.90
13245;DHT22;6689;53.400;12.486;2023-07-20T11:11:42;23.40;99.90
13245;DHT22;6689;53.400;12.486;2023-07-20T11:14:11;23.50;99.90
13245;DHT22;6689;53.400;12.486;2023-07-20T11:16:48;23.60;99.90
13245;DHT22;6689;53.400;12.486;2023-07-20T11:19:17;23.60;99.90
13245;DHT22;6689;53.400;12.486;2023-07-20T11:21:49;23.30;99.90
13245;DHT22;6689;53.400;12.486;2023-07-20T11:24:17;23.60;99.90
13245;DHT22;6689;53.400;12.486;2023-07-20T11:26:45;23.30;99.90
13245;DHT22;6689;53.400;12.486;2023-07-20T11:29:15;23.40;99.90
13245;DHT22;6689;53.400;12.486;2023-07-20T11:31:43;23.10;99.90
13245;DHT22;6689;53.400;12.486;2023-07-20T11:34:12;22.70;99.90
13245;DHT22;6689;53.400;12.486;2023-07-20T11:36:40;22.80;99.90
13245;DHT22;6689;53.400;12.486;2023-07-20T11:39:12;22.50;99.90
13245;DHT22;6689;53.400;12.486;2023-07-20T11:41:46;22.40;99.90
13245;DHT22;6689;53.400;12.486;2023-07-20T11:44:14;22.30;99.90
13245;DHT22;6689;53.400;12.486;2023-07-20T11:46:42;22.30;99.90
13245;DHT22;6689;53.400;12.486;2023-07-20T11:49:13;22.10;99.90
13245;DHT22;6689;53.400;12.486;2023-07-20T11:51:40;22.10;99.90
13245;DHT22;6689;53.400;12.486;2023-07-20T11:54:10;22.00;99.90
13245;DHT22;6689;53.400;12.486;2023-07-20T11:56:41;21.90;99.90
13245;DHT22;6689;53.400;12.486;2023-07-20T11:59:09;21.80;99.90
13245;DHT22;6689;53.400;12.486;2023-07-20T12:01:37;21.60;99.90
13245;DHT22;6689;53.400;12.486;2023-07-20T12:04:05;21.80;99.90
13245;DHT22;6689;53.400;12.486;2023-07-20T12:06:33;22.00;99.90
13245;DHT22;6689;53.400;12.486;2023-07-20T12:09:00;22.40;99.90
13245;DHT22;6689;53.400;12.486;2023-07-20T12:11:35;22.70;99.90
13245;DHT22;6689;53.400;12.486;2023-07-20T12:14:03;23.10;99.90
13245;DHT22;6689;53.400;12.486;2023-07-20T12:16:31;23.50;99.90
13245;DHT22;6689;53.400;12.486;2023-07-20T12:19:02;23.80;99.90
13245;DHT22;6689;53.400;12.486;2023-07-20T12:21:30;23.90;99.90
13245;DHT22;6689;53.400;12.486;2023-07-20T12:23:58;24.00;99.90
13245;DHT22;6689;53.400;12.486;2023-07-20T12:26:26;24.00;99.90
13245;DHT22;6689;53.400;12.486;2023-07-20T12:28:57;23.90;99.90
13245;DHT22;6689;53.400;12.486;2023-07-20T12:31:26;24.00;99.90
13245;DHT22;6689;53.400;12.486;2023-07-20T12:33:57;23.70;99.90
13245;DHT22;6689;53.400;12.486;2023-07-20T12:36:26;23.30;99.90
13245;DHT22;6689;53.400;12.486;2023-07-20T12:38:53;23.10;99.90
13245;DHT22;6689;53.400;12.486;2023-07-20T12:41:20;22.90;99.90
13245;DHT22;6689;53.400;12.486;2023-07-20T12:43:47;22.80;99.90
13245;DHT22;6689;53.400;12.486;2023-07-20T12:46:16;22.50;99.90
13245;DHT22;6689;53.400;12.486;2023-07-20T12:48:44;22.50;99.90
13245;DHT22;6689;53.400;12.486;2023-07-20T12:51:12;22.50;99.90
13245;DHT22;6689;53.400;12.486;2023-07-20T12:53:39;22.40;99.90
13245;DHT22;6689;53.400;12.486;2023-07-20T12:56:09;22.80;99.90
13245;DHT22;6689;53.400;12.486;2023-07-20T12:58:37;23.10;99.90
13245;DHT22;6689;53.400;12.486;2023-07-20T13:01:04;23.00;99.90
13245;DHT22;6689;53.400;12.486;2023-07-20T13:03:33;23.00;99.90
13245;DHT22;6689;53.400;12.486;2023-07-20T13:06:00;23.20;99.90
13245;DHT22;6689;53.400;12.486;2023-07-20T13:08:28;23.20;99.90
13245;DHT22;6689;53.400;12.486;2023-07-20T13:10:55;23.20;99.90
13245;DHT22;6689;53.400;12.486;2023-07-20T13:13:22;23.20;99.90
13245;DHT22;6689;53.400;12.486;2023-07-20T13:15:50;22.80;99.90
13245;DHT22;6689;53.400;12.486;2023-07-20T13:18:17;22.60;99.90
13245;DHT22;6689;53.400;12.486;2023-07-20T13:20:46;22.50;99.90
13245;DHT22;6689;53.400;12.486;2023-07-20T13:23:14;22.40;99.90
13245;DHT22;6689;53.400;12.486;2023-07-20T13:25:41;22.30;99.90
13245;DHT22;6689;53.400;12.486;2023-07-20T13:28:09;22.20;99.90
13245;DHT22;6689;53.400;12.486;2023-07-20T13:30:38;22.30;99.90
13245;DHT22;6689;53.400;12.486;2023-07-20T13:33:06;22.00;99.90
13245;DHT22;6689;53.400;12.486;2023-07-20T13:35:33;22.10;99.90
13245;DHT22;6689;53.400;12.486;2023-07-20T13:38:01;22.20;99.90
13245;DHT22;6689;53.400;12.486;2023-07-20T13:40:29;22.10;99.90
13245;DHT22;6689;53.400;12.486;2023-07-20T13:42:57;22.20;99.90
13245;DHT22;6689;53.400;12.486;2023-07-20T13:45:24;22.40;99.90
13245;DHT22;6689;53.400;12.486;2023-07-20T13:47:52;22.30;99.90
13245;DHT22;6689;53.400;12.486;2023-07-20T13:50:19;22.50;99.90
13245;DHT22;6689;53.400;12.486;2023-07-20T13:52:47;22.70;99.90
13245;DHT22;6689;53.400;12.486;2023-07-20T13:55:16;22.70;99.90
13245;DHT22;6689;53.400;12.486;2023-07-20T13:57:43;22.60;99.90
13245;DHT22;6689;53.400;12.486;2023-07-20T14:00:12;22.70;99.90
13245;DHT22;6689;53.400;12.486;2023-07-20T14:02:39;22.90;99.90
13245;DHT22;6689;53.400;12.486;2023-07-20T14:05:09;22.80;99.90
13245;DHT22;6689;53.400;12.486;2023-07-20T14:07:36;22.60;99.90
13245;DHT22;6689;53.400;12.486;2023-07-20T14:10:04;22.50;99.90
13245;DHT22;6689;53.400;12.486;2023-07-20T14:12:33;22.20;99.90
13245;DHT22;6689;53.400;12.486;2023-07-20T14:15:00;22.30;99.90
13245;DHT22;6689;53.400;12.486;2023-07-20T14:17:30;22.20;99.90
13245;DHT22;6689;53.400;12.486;2023-07-20T14:19:57;21.80;99.90
13245;DHT22;6689;53.400;12.486;2023-07-20T14:22:24;21.60;99.90
13245;DHT22;6689;53.400;12.486;2023-07-20T14:24:52;21.60;99.90
13245;DHT22;6689;53.400;12.486;2023-07-20T14:27:19;21.60;99.90
13245;DHT22;6689;53.400;12.486;2023-07-20T14:29:47;21.60;99.90
13245;DHT22;6689;53.400;12.486;2023-07-20T14:32:15;21.50;99.90
13245;DHT22;6689;53.400;12.486;2023-07-20T14:34:42;21.50;99.90
13245;DHT22;6689;53.400;12.486;2023-07-20T14:37:10;21.20;99.90
13245;DHT22;6689;53.400;12.486;2023-07-20T14:39:38;21.30;99.90
13245;DHT22;6689;53.400;12.486;2023-07-20T14:42:08;21.60;99.90
13245;DHT22;6689;53.400;12.486;2023-07-20T14:44:35;21.40;99.90
13245;DHT22;6689;53.400;12.486;2023-07-20T14:47:05;21.40;99.90
13245;DHT22;6689;53.400;12.486;2023-07-20T14:49:32;21.60;99.90
13245;DHT22;6689;53.400;12.486;2023-07-20T14:52:00;21.60;99.90
13245;DHT22;6689;53.400;12.486;2023-07-20T14:54:27;21.60;99.90
13245;DHT22;6689;53.400;12.486;2023-07-20T14:56:55;21.60;99.90
13245;DHT22;6689;53.400;12.486;2023-07-20T14:59:22;21.80;99.90
13245;DHT22;6689;53.400;12.486;2023-07-20T15:01:50;21.80;99.90
13245;DHT22;6689;53.400;12.486;2023-07-20T15:04:20;21.70;99.90
13245;DHT22;6689;53.400;12.486;2023-07-20T15:06:47;21.90;99.90
13245;DHT22;6689;53.400;12.486;2023-07-20T15:09:14;22.00;99.90
13245;DHT22;6689;53.400;12.486;2023-07-20T15:11:41;22.10;99.90
13245;DHT22;6689;53.400;12.486;2023-07-20T15:14:09;22.30;99.90
13245;DHT22;6689;53.400;12.486;2023-07-20T15:16:36;22.40;99.90
13245;DHT22;6689;53.400;12.486;2023-07-20T15:19:03;22.30;99.90
13245;DHT22;6689;53.400;12.486;2023-07-20T15:21:32;22.30;99.90
13245;DHT22;6689;53.400;12.486;2023-07-20T15:24:00;22.10;99.90
13245;DHT22;6689;53.400;12.486;2023-07-20T15:26:27;22.10;99.90
13245;DHT22;6689;53.400;12.486;2023-07-20T15:28:55;21.90;99.90
13245;DHT22;6689;53.400;12.486;2023-07-20T15:31:23;21.90;99.90
13245;DHT22;6689;53.400;12.486;2023-07-20T15:33:51;21.70;99.90
13245;DHT22;6689;53.400;12.486;2023-07-20T15:36:19;21.70;99.90
13245;DHT22;6689;53.400;12.486;2023-07-20T15:38:48;21.50;99.90
13245;DHT22;6689;53.400;12.486;2023-07-20T15:41:15;21.50;99.90
13245;DHT22;6689;53.400;12.486;2023-07-20T15:43:43;21.60;99.90
13245;DHT22;6689;53.400;12.486;2023-07-20T15:46:43;21.50;99.90
13245;DHT22;6689;53.400;12.486;2023-07-20T15:49:12;21.60;99.90
13245;DHT22;6689;53.400;12.486;2023-07-20T15:51:39;21.60;99.90